Ljuta — J8B4127 — position and weather

sailwx.info

Track history (hours):
 
Tides and Currents Weather Stations Pressure Air Temp Water Temp Dewpoint Dewpoint Depression Visibility Wind Speed Wind Dir Waves Ship Positions

Ljuta

Last reported at 2017-Mar-12 14:13 UTC. Time now 2017-Mar-26 15:21 UTC.
Position N 30°26' W 009°40'.
Warning: this ship's position is 14 days out of date.

Length 177 m; draft 9.6 m.

Type: Cargo ship. MMSI: 377715000.

Date/timePositionNaut miles runAvg speedWind from/ knotsBaromVisibWave heightAir tempDewpointWater temp
2017-Mar-12 14:13N 30°26' W 009°40'0 0.0
2017-Mar-12 13:28N 30°26' W 009°40'0 0.0
2017-Mar-12 12:25N 30°26' W 009°40'1 0.1
2017-Mar-12 04:13N 30°26' W 009°41'1311.1
2017-Mar-12 03:06N 30°30' W 009°55'2810.7
2017-Mar-12 00:30N 30°55' W 010°08'1513.9
2017-Mar-11 23:27N 31°10' W 010°07'1313.6
2017-Mar-11 22:30N 31°23' W 010°06'1413.9
2017-Mar-11 21:31N 31°36' W 010°05'1714.0
2017-Mar-11 20:19N 31°53' W 010°03'1114.0
2017-Mar-11 19:33N 32°04' W 010°02'5313.2
2017-Mar-11 15:33N 32°52' W 009°36'2813.9
2017-Mar-11 13:31N 33°12' W 009°13'8013.0
2017-Mar-11 07:23N 34°11' W 008°08'1213.1
2017-Mar-11 06:29N 34°20' W 007°58'4013.2
2017-Mar-11 03:27N 34°50' W 007°26'2713.4
2017-Mar-11 01:27N 35°09' W 007°03'8213.0
2017-Mar-10 19:07N 35°57' W 005°41'711.6
2017-Mar-10 18:33N 35°58' W 005°33'1111.6
2017-Mar-10 17:33N 36°01' W 005°19'1212.0
2017-Mar-10 16:32N 36°03' W 005°04'20913.1
2017-Mar-10 00:33N 36°35' W 000°47'  
2017-Mar-07 00:33N 36°51' E 013°40'1212.2
2017-Mar-06 23:33N 36°48' E 013°55'1212.3
2017-Mar-06 22:33N 36°45' E 014°10'1212.2
2017-Mar-06 21:33N 36°41' E 014°25'56511.3
2017-Mar-04 19:21N 39°49' E 025°44'  
Track history (hours):
 
Tides and Currents Weather Stations Pressure Air Temp Water Temp Dewpoint Dewpoint Depression Visibility Wind Speed Wind Dir Waves Ship Positions

Ljuta

Last reported at 2017-Mar-12 14:13 UTC. Time now 2017-Mar-26 15:21 UTC.
Position N 30°26' W 009°40'.
Warning: this ship's position is 14 days out of date.

Length 177 m; draft 9.6 m.

Type: Cargo ship. MMSI: 377715000.

Date/timePositionNaut miles runAvg speedWind from/ knotsBaromVisibWave heightAir tempDewpointWater temp
2017-Mar-12 14:13N 30°26' W 009°40'0 0.0
2017-Mar-12 13:28N 30°26' W 009°40'0 0.0
2017-Mar-12 12:25N 30°26' W 009°40'1 0.1
2017-Mar-12 04:13N 30°26' W 009°41'1311.1
2017-Mar-12 03:06N 30°30' W 009°55'2810.7
2017-Mar-12 00:30N 30°55' W 010°08'1513.9
2017-Mar-11 23:27N 31°10' W 010°07'1313.6
2017-Mar-11 22:30N 31°23' W 010°06'1413.9
2017-Mar-11 21:31N 31°36' W 010°05'1714.0
2017-Mar-11 20:19N 31°53' W 010°03'1114.0
2017-Mar-11 19:33N 32°04' W 010°02'5313.2
2017-Mar-11 15:33N 32°52' W 009°36'2813.9
2017-Mar-11 13:31N 33°12' W 009°13'8013.0
2017-Mar-11 07:23N 34°11' W 008°08'1213.1
2017-Mar-11 06:29N 34°20' W 007°58'4013.2
2017-Mar-11 03:27N 34°50' W 007°26'2713.4
2017-Mar-11 01:27N 35°09' W 007°03'8213.0
2017-Mar-10 19:07N 35°57' W 005°41'711.6
2017-Mar-10 18:33N 35°58' W 005°33'1111.6
2017-Mar-10 17:33N 36°01' W 005°19'1212.0
2017-Mar-10 16:32N 36°03' W 005°04'20913.1
2017-Mar-10 00:33N 36°35' W 000°47'  
2017-Mar-07 00:33N 36°51' E 013°40'1212.2
2017-Mar-06 23:33N 36°48' E 013°55'1212.3
2017-Mar-06 22:33N 36°45' E 014°10'1212.2
2017-Mar-06 21:33N 36°41' E 014°25'56511.3
2017-Mar-04 19:21N 39°49' E 025°44'  

Dump ship's entire track history